Time;durP1;ratioP1;P1;durP2;ratioP2;P2;SDS_P1;SDS_P2;PMS_P1;PMS_P2;Temp;Humidity;BMP_temperature;BMP_pressure;BME280_temperature;BME280_humidity;BME280_pressure;Samples;Min_cycle;Max_cycle;Signal;HPM_P1;HPM_P2
2021/08/26 00:07:22;;;;;;;36.87;23.77;;;14.80;99.90;;;;;;5031697;28;20232;-61
2021/08/26 00:09:48;;;;;;;38.43;25.50;;;14.80;99.90;;;;;;5031420;28;20209;-60
2021/08/26 00:12:15;;;;;;;39.93;24.77;;;14.90;99.90;;;;;;5031640;28;20218;-60
2021/08/26 00:14:42;;;;;;;42.37;26.23;;;14.80;99.90;;;;;;5031643;28;20260;-61
2021/08/26 00:17:09;;;;;;;40.53;26.83;;;14.80;99.90;;;;;;5031710;28;20259;-60
2021/08/26 00:19:38;;;;;;;39.20;25.73;;;14.80;99.90;;;;;;5031501;28;20206;-60
2021/08/26 00:22:05;;;;;;;43.73;26.73;;;14.80;99.90;;;;;;5031330;28;20287;-61
2021/08/26 00:24:31;;;;;;;43.50;26.60;;;14.80;99.90;;;;;;5031433;28;20218;-60
2021/08/26 00:26:58;;;;;;;42.40;25.60;;;14.80;99.90;;;;;;5031577;28;20215;-61
2021/08/26 00:29:25;;;;;;;41.87;25.43;;;14.90;99.90;;;;;;5031649;28;20210;-61
2021/08/26 00:31:51;;;;;;;42.10;25.73;;;14.80;99.90;;;;;;5031508;28;20230;-61
2021/08/26 00:34:18;;;;;;;40.97;23.43;;;14.80;99.90;;;;;;5032410;28;20686;-60
2021/08/26 00:36:46;;;;;;;41.00;23.93;;;14.80;99.90;;;;;;5034780;28;20210;-60
2021/08/26 00:39:12;;;;;;;41.90;23.80;;;14.80;99.90;;;;;;5035259;28;20210;-61
2021/08/26 00:41:39;;;;;;;42.00;23.57;;;14.80;99.90;;;;;;5034634;28;20252;-61
2021/08/26 00:44:06;;;;;;;42.40;23.30;;;14.80;99.90;;;;;;5034938;28;20209;-60
2021/08/26 00:46:33;;;;;;;40.53;23.67;;;14.80;99.90;;;;;;5034852;28;20209;-60
2021/08/26 00:48:59;;;;;;;39.23;21.70;;;14.90;99.90;;;;;;5034867;28;20214;-60
2021/08/26 00:51:26;;;;;;;33.87;21.50;;;14.90;99.90;;;;;;5034550;28;20610;-59
2021/08/26 00:53:54;;;;;;;34.93;20.53;;;14.90;99.90;;;;;;5034467;28;20691;-60
2021/08/26 00:56:21;;;;;;;32.73;19.90;;;14.90;99.90;;;;;;5034662;28;20264;-61
2021/08/26 00:58:51;;;;;;;32.93;19.30;;;14.80;99.90;;;;;;5034599;28;20760;-61
2021/08/26 01:01:21;;;;;;;32.03;18.73;;;14.90;99.90;;;;;;5034422;28;20286;-61
2021/08/26 01:03:53;;;;;;;37.03;20.57;;;14.80;99.90;;;;;;5034414;28;20248;-61
2021/08/26 01:06:26;;;;;;;35.53;21.00;;;14.80;99.90;;;;;;5034645;28;20276;-61
2021/08/26 01:09:05;;;;;;;37.13;20.40;;;14.90;99.90;;;;;;5034656;28;20297;-59
2021/08/26 01:11:35;;;;;;;35.90;21.17;;;14.90;99.90;;;;;;5034254;28;20264;-61
2021/08/26 01:14:04;;;;;;;32.87;18.97;;;14.80;99.90;;;;;;5034607;28;20635;-60
2021/08/26 01:16:31;;;;;;;31.87;19.17;;;14.80;99.90;;;;;;5034304;28;20252;-60
2021/08/26 01:18:57;;;;;;;28.63;17.17;;;14.80;99.90;;;;;;5034552;28;20270;-60
2021/08/26 01:21:25;;;;;;;23.83;15.37;;;14.80;99.90;;;;;;5034318;28;20230;-61
2021/08/26 01:23:57;;;;;;;23.93;15.60;;;14.80;99.90;;;;;;5034187;28;20232;-61
2021/08/26 01:26:31;;;;;;;17.10;12.50;;;14.70;99.90;;;;;;5034164;28;20276;-61
2021/08/26 01:28:59;;;;;;;18.07;12.10;;;14.70;99.90;;;;;;5033941;28;20217;-60
2021/08/26 01:31:26;;;;;;;17.37;12.33;;;14.70;99.90;;;;;;5034326;28;20205;-61
2021/08/26 01:33:54;;;;;;;10.93;8.33;;;14.70;99.90;;;;;;5034033;28;20256;-61
2021/08/26 01:36:24;;;;;;;8.97;6.93;;;14.70;99.90;;;;;;5034073;28;20240;-61
2021/08/26 01:38:51;;;;;;;8.47;6.10;;;14.50;99.90;;;;;;5033884;28;20627;-61
2021/08/26 01:41:18;;;;;;;9.07;5.60;;;14.50;99.90;;;;;;5033607;28;20811;-60
2021/08/26 01:43:47;;;;;;;8.40;3.80;;;14.50;99.90;;;;;;5033818;28;20651;-60
2021/08/26 01:46:15;;;;;;;7.27;3.30;;;14.40;99.90;;;;;;5033246;28;20213;-61
2021/08/26 01:48:43;;;;;;;10.80;3.90;;;14.40;99.90;;;;;;5033544;28;20745;-60
2021/08/26 01:51:10;;;;;;;6.30;3.47;;;14.30;84.70;;;;;;5033602;28;20685;-61
2021/08/26 01:53:36;;;;;;;10.47;3.60;;;14.30;86.10;;;;;;5033287;28;20291;-60
2021/08/26 01:56:04;;;;;;;7.07;3.50;;;14.30;84.40;;;;;;5033429;28;20287;-60
2021/08/26 01:58:30;;;;;;;7.37;3.30;;;14.20;79.80;;;;;;5033738;28;20634;-61
2021/08/26 02:00:58;;;;;;;5.63;3.23;;;14.20;62.90;;;;;;5033351;28;20710;-61
2021/08/26 02:03:25;;;;;;;5.50;3.40;;;14.30;1.00;;;;;;5033427;28;20229;-61
2021/08/26 02:05:51;;;;;;;7.13;3.50;;;14.30;1.00;;;;;;5033274;28;20289;-61
2021/08/26 02:08:18;;;;;;;4.90;2.83;;;14.20;1.00;;;;;;5033363;28;20213;-60
2021/08/26 02:10:44;;;;;;;7.23;3.87;;;14.20;1.00;;;;;;5033344;28;20267;-61
2021/08/26 02:13:11;;;;;;;7.10;3.83;;;14.20;6.90;;;;;;5033296;28;20229;-57
2021/08/26 02:15:38;;;;;;;7.57;3.77;;;14.20;2.30;;;;;;5033234;28;20218;-56
2021/08/26 02:18:06;;;;;;;8.20;3.73;;;14.20;1.00;;;;;;5033256;28;20209;-59
2021/08/26 02:20:32;;;;;;;15.87;3.83;;;14.20;1.00;;;;;;5033052;28;20259;-56
2021/08/26 02:22:59;;;;;;;8.50;3.70;;;14.20;1.00;;;;;;5032805;28;20696;-56
2021/08/26 02:25:25;;;;;;;10.67;4.43;;;14.10;1.00;;;;;;5032954;28;20257;-55
2021/08/26 02:27:52;;;;;;;8.20;3.40;;;14.20;1.00;;;;;;5033136;28;20273;-58
2021/08/26 02:30:19;;;;;;;7.63;3.63;;;14.20;1.00;;;;;;5032786;28;20732;-59
2021/08/26 02:32:45;;;;;;;8.20;3.80;;;14.10;1.00;;;;;;5032959;28;20279;-55
2021/08/26 02:35:14;;;;;;;9.50;4.50;;;14.10;1.00;;;;;;5032742;28;20623;-56
2021/08/26 02:37:40;;;;;;;7.97;3.30;;;14.20;1.00;;;;;;5032601;28;20206;-57
2021/08/26 02:40:08;;;;;;;10.00;3.97;;;14.20;1.00;;;;;;5032906;28;20217;-59
2021/08/26 02:42:35;;;;;;;10.33;3.50;;;14.20;1.00;;;;;;5032411;28;20705;-57
2021/08/26 02:45:01;;;;;;;7.90;3.63;;;14.20;1.00;;;;;;5032651;28;20210;-59
2021/08/26 02:47:28;;;;;;;8.53;4.20;;;14.20;1.00;;;;;;5032628;28;20214;-57
2021/08/26 02:49:54;;;;;;;11.43;4.57;;;14.20;1.00;;;;;;5032611;28;20210;-60
2021/08/26 02:52:22;;;;;;;7.43;4.27;;;14.20;1.00;;;;;;5032171;28;20229;-59
2021/08/26 02:54:49;;;;;;;9.00;4.50;;;14.10;1.00;;;;;;5032593;28;20263;-56
2021/08/26 02:57:16;;;;;;;9.43;4.43;;;14.20;4.00;;;;;;5031526;28;20210;-54
2021/08/26 02:59:42;;;;;;;10.70;4.80;;;14.20;8.10;;;;;;5032256;28;20748;-54
2021/08/26 03:02:09;;;;;;;9.63;4.97;;;14.20;17.50;;;;;;5032083;28;20763;-53
2021/08/26 03:04:36;;;;;;;9.40;4.80;;;14.20;22.40;;;;;;5032046;28;20275;-56
2021/08/26 03:07:03;;;;;;;10.73;4.80;;;14.20;25.60;;;;;;5032422;28;20294;-57
2021/08/26 03:09:31;;;;;;;8.63;4.73;;;14.20;21.90;;;;;;5032330;28;20229;-59
2021/08/26 03:11:58;;;;;;;8.30;4.50;;;14.20;17.70;;;;;;5032232;28;20229;-60
2021/08/26 03:14:24;;;;;;;10.73;5.27;;;14.20;13.50;;;;;;5032060;28;20291;-56
2021/08/26 03:16:51;;;;;;;13.63;4.40;;;14.20;14.80;;;;;;5032223;28;20259;-56
2021/08/26 03:19:18;;;;;;;13.33;4.73;;;14.20;9.90;;;;;;5031949;28;20252;-57
2021/08/26 03:21:44;;;;;;;12.73;4.37;;;14.30;1.00;;;;;;5032147;28;20351;-57
2021/08/26 03:24:11;;;;;;;10.77;4.33;;;14.40;1.00;;;;;;5031987;28;20263;-58
2021/08/26 03:26:39;;;;;;;10.83;4.40;;;14.40;1.00;;;;;;5032122;28;20214;-57
2021/08/26 03:29:05;;;;;;;9.63;4.10;;;14.40;1.00;;;;;;5031905;28;20210;-56
2021/08/26 03:31:32;;;;;;;10.83;4.37;;;14.40;1.00;;;;;;5031995;28;20206;-60
2021/08/26 03:33:59;;;;;;;12.90;5.00;;;14.20;1.00;;;;;;5031600;28;20212;-57
2021/08/26 03:36:27;;;;;;;16.90;5.27;;;14.10;1.00;;;;;;5032098;28;20267;-57
2021/08/26 03:38:54;;;;;;;13.90;4.90;;;14.10;1.00;;;;;;5031993;28;20214;-56
2021/08/26 03:41:21;;;;;;;10.73;4.60;;;14.10;1.00;;;;;;5031876;28;20641;-59
2021/08/26 03:43:49;;;;;;;13.40;5.50;;;14.00;1.00;;;;;;5031801;28;20244;-52
2021/08/26 03:46:16;;;;;;;14.67;5.10;;;13.90;1.00;;;;;;5031625;28;20675;-57
2021/08/26 03:48:43;;;;;;;11.83;5.33;;;13.90;1.00;;;;;;5031669;28;20211;-60
2021/08/26 03:51:09;;;;;;;15.83;4.97;;;13.90;99.90;;;;;;5031911;28;20624;-58
2021/08/26 03:53:36;;;;;;;13.07;4.03;;;13.90;99.90;;;;;;5031550;28;20283;-55
2021/08/26 03:56:05;;;;;;;12.47;4.67;;;13.90;99.90;;;;;;5031823;28;20266;-60
2021/08/26 03:58:32;;;;;;;21.30;4.97;;;13.90;99.90;;;;;;5031658;28;20678;-56
2021/08/26 04:01:00;;;;;;;15.43;4.30;;;13.80;99.90;;;;;;5031595;28;20259;-53
2021/08/26 04:03:27;;;;;;;11.50;5.00;;;13.80;99.90;;;;;;5031626;28;20684;-60
2021/08/26 04:05:53;;;;;;;13.40;4.40;;;13.80;99.90;;;;;;5031696;28;20210;-59
2021/08/26 04:08:20;;;;;;;11.50;4.30;;;13.80;99.90;;;;;;5031786;28;20213;-59
2021/08/26 04:10:46;;;;;;;11.60;4.40;;;13.70;99.90;;;;;;5035395;28;20264;-55
2021/08/26 04:13:13;;;;;;;16.00;4.37;;;13.60;99.90;;;;;;5035334;28;20756;-60
2021/08/26 04:15:40;;;;;;;17.63;4.67;;;13.60;99.90;;;;;;5035188;28;20259;-57
2021/08/26 04:18:08;;;;;;;9.90;4.03;;;13.60;99.90;;;;;;5035679;28;20367;-57
2021/08/26 04:20:34;;;;;;;12.50;4.67;;;13.60;99.90;;;;;;5035566;28;20631;-59
2021/08/26 04:23:04;;;;;;;9.27;4.13;;;13.60;99.90;;;;;;5035283;28;20261;-58
2021/08/26 04:25:31;;;;;;;10.30;4.37;;;13.60;1.00;;;;;;5035234;28;20210;-56
2021/08/26 04:27:57;;;;;;;13.83;4.30;;;13.60;1.00;;;;;;5034984;28;20692;-60
2021/08/26 04:30:24;;;;;;;15.33;4.20;;;13.70;1.00;;;;;;5035413;28;20210;-59
2021/08/26 04:32:51;;;;;;;10.17;3.97;;;13.70;99.90;;;;;;5035212;28;20280;-59
2021/08/26 04:35:19;;;;;;;13.50;4.07;;;13.80;99.90;;;;;;5035059;28;20382;-60
2021/08/26 04:37:46;;;;;;;12.90;3.73;;;13.70;99.90;;;;;;5034963;28;20697;-60
2021/08/26 04:40:13;;;;;;;13.77;4.53;;;13.70;99.90;;;;;;5035022;28;20701;-60
2021/08/26 04:42:39;;;;;;;13.93;3.73;;;13.60;99.90;;;;;;5034573;28;20755;-60
2021/08/26 04:45:07;;;;;;;12.27;4.17;;;13.60;99.90;;;;;;5034974;28;20206;-60
2021/08/26 04:47:35;;;;;;;14.37;4.10;;;13.60;99.90;;;;;;5034969;28;20213;-60
2021/08/26 04:50:01;;;;;;;13.73;4.40;;;13.50;99.90;;;;;;5034968;28;20589;-60
2021/08/26 04:52:29;;;;;;;13.77;4.67;;;13.50;99.90;;;;;;5034594;28;20229;-57
2021/08/26 04:54:56;;;;;;;13.60;5.27;;;13.50;99.90;;;;;;5034640;28;20740;-59
2021/08/26 04:57:22;;;;;;;13.43;4.97;;;13.50;99.90;;;;;;5034450;28;20205;-60
2021/08/26 04:59:49;;;;;;;16.97;4.77;;;13.50;99.90;;;;;;5034764;28;20275;-60
2021/08/26 05:02:15;;;;;;;13.80;4.70;;;13.50;99.90;;;;;;5034529;28;20286;-60
2021/08/26 05:04:42;;;;;;;18.53;4.70;;;13.50;99.90;;;;;;5034336;28;20373;-59
2021/08/26 05:07:09;;;;;;;12.87;4.93;;;13.50;99.90;;;;;;5034516;28;20749;-60
2021/08/26 05:09:37;;;;;;;13.87;4.23;;;13.60;99.90;;;;;;5034245;28;20259;-58
2021/08/26 05:12:06;;;;;;;14.93;4.67;;;13.50;99.90;;;;;;5034382;28;20330;-60
2021/08/26 05:14:32;;;;;;;11.23;4.20;;;13.60;99.90;;;;;;5034203;28;20297;-60
2021/08/26 05:16:59;;;;;;;13.57;4.63;;;13.60;99.90;;;;;;5034402;28;20208;-59
2021/08/26 05:19:26;;;;;;;11.00;4.30;;;13.50;99.90;;;;;;5034178;28;20214;-60
2021/08/26 05:21:53;;;;;;;11.80;4.50;;;13.60;96.30;;;;;;5032976;28;20228;-61
2021/08/26 05:24:20;;;;;;;17.80;3.73;;;13.50;1.00;;;;;;5033805;28;20290;-60
2021/08/26 05:26:48;;;;;;;9.47;3.73;;;13.60;1.00;;;;;;5034122;28;20578;-59
2021/08/26 05:29:15;;;;;;;14.73;4.27;;;13.50;1.00;;;;;;5033967;28;20712;-57
2021/08/26 05:31:41;;;;;;;13.43;3.97;;;13.60;1.00;;;;;;5033914;28;20873;-60
2021/08/26 05:34:08;;;;;;;14.00;4.20;;;13.60;99.90;;;;;;5033771;28;20210;-59
2021/08/26 05:36:34;;;;;;;17.00;4.60;;;13.60;99.90;;;;;;5033916;28;20208;-59
2021/08/26 05:39:01;;;;;;;9.40;4.33;;;13.60;99.90;;;;;;5033789;28;20263;-58
2021/08/26 05:41:28;;;;;;;12.07;3.37;;;13.60;99.90;;;;;;5033759;28;20267;-60
2021/08/26 05:43:56;;;;;;;13.30;4.50;;;13.60;99.90;;;;;;5033716;28;20297;-59
2021/08/26 05:46:22;;;;;;;9.50;3.37;;;13.70;74.60;;;;;;5033868;28;20658;-60
2021/08/26 05:48:49;;;;;;;14.90;4.13;;;13.70;1.00;;;;;;5033660;28;20676;-59
2021/08/26 05:51:16;;;;;;;11.30;3.60;;;13.70;99.90;;;;;;5033294;28;20259;-59
2021/08/26 05:53:42;;;;;;;13.90;4.07;;;13.80;99.90;;;;;;5033246;28;20244;-61
2021/08/26 05:56:09;;;;;;;10.23;3.40;;;13.80;99.90;;;;;;5033648;28;20636;-58
2021/08/26 05:58:35;;;;;;;12.87;3.83;;;13.80;99.90;;;;;;5033441;28;20214;-60
2021/08/26 06:01:03;;;;;;;11.20;3.83;;;13.90;1.00;;;;;;5033489;28;20205;-58
2021/08/26 06:03:30;;;;;;;18.97;4.10;;;13.90;99.90;;;;;;5031105;28;20956;-62
2021/08/26 06:05:56;;;;;;;9.03;3.30;;;13.90;1.00;;;;;;5040356;28;20210;-58
2021/08/26 06:08:27;;;;;;;10.93;3.40;;;13.90;1.00;;;;;;5033401;28;20216;-60
2021/08/26 06:10:54;;;;;;;14.90;3.63;;;14.00;1.00;;;;;;5033115;28;20745;-60
2021/08/26 06:13:20;;;;;;;14.20;3.80;;;14.00;99.90;;;;;;5032904;28;20222;-60
2021/08/26 06:15:47;;;;;;;17.80;4.77;;;14.00;1.00;;;;;;5033181;28;20214;-61
2021/08/26 06:18:16;;;;;;;11.43;3.83;;;14.00;99.90;;;;;;5032725;28;20743;-60
2021/08/26 06:20:43;;;;;;;15.03;3.60;;;14.00;1.00;;;;;;5032989;28;20865;-61
2021/08/26 06:23:10;;;;;;;10.63;3.53;;;14.00;1.00;;;;;;5032836;28;20238;-60
2021/08/26 06:25:36;;;;;;;11.73;3.60;;;14.00;99.90;;;;;;5032985;28;20213;-60
2021/08/26 06:28:03;;;;;;;14.40;3.43;;;13.90;99.90;;;;;;5029530;28;20211;-60
2021/08/26 06:30:30;;;;;;;12.10;3.77;;;14.00;99.90;;;;;;5032404;28;20199;-60
2021/08/26 06:32:57;;;;;;;12.63;4.03;;;14.00;99.90;;;;;;5031819;28;20270;-61
2021/08/26 06:35:25;;;;;;;8.83;3.43;;;14.10;68.70;;;;;;5032022;28;20213;-61
2021/08/26 06:37:51;;;;;;;13.77;3.80;;;14.10;99.90;;;;;;5032280;28;20357;-61
2021/08/26 06:40:18;;;;;;;16.10;3.97;;;14.10;1.00;;;;;;5032038;28;20212;-60
2021/08/26 06:42:45;;;;;;;14.87;3.83;;;14.10;99.90;;;;;;5032131;28;20230;-60
2021/08/26 06:45:12;;;;;;;12.77;4.90;;;14.10;1.00;;;;;;5032006;28;20240;-61
2021/08/26 06:47:39;;;;;;;14.57;4.50;;;14.00;99.90;;;;;;5032006;28;20251;-59
2021/08/26 06:50:06;;;;;;;16.20;4.20;;;14.10;1.00;;;;;;5031988;28;20209;-60
2021/08/26 06:52:34;;;;;;;15.73;5.07;;;14.10;1.00;;;;;;5031816;28;20345;-66
2021/08/26 06:55:01;;;;;;;13.87;4.07;;;14.10;11.20;;;;;;5031636;28;20218;-59
2021/08/26 06:57:29;;;;;;;16.00;4.53;;;14.20;99.90;;;;;;5032079;28;20678;-60
2021/08/26 06:59:56;;;;;;;15.07;4.10;;;14.20;99.90;;;;;;5031809;28;20213;-63
2021/08/26 07:02:22;;;;;;;13.37;4.33;;;14.20;99.90;;;;;;5031742;28;20575;-61
2021/08/26 07:04:49;;;;;;;12.90;4.37;;;14.20;99.90;;;;;;5032146;28;20218;-63
2021/08/26 07:07:16;;;;;;;17.77;4.77;;;14.20;99.90;;;;;;5032082;28;20217;-62
2021/08/26 07:09:44;;;;;;;12.37;4.00;;;14.00;90.00;;;;;;5032033;28;20285;-61
2021/08/26 07:12:10;;;;;;;13.17;4.57;;;14.00;99.90;;;;;;5031777;28;20717;-61
2021/08/26 07:14:37;;;;;;;12.37;4.60;;;14.00;99.90;;;;;;5031624;28;20214;-62
2021/08/26 07:17:04;;;;;;;16.07;4.27;;;14.00;99.90;;;;;;5031795;28;20263;-61
2021/08/26 07:19:30;;;;;;;19.40;4.03;;;14.00;99.90;;;;;;5031518;28;20747;-61
2021/08/26 07:21:57;;;;;;;10.37;3.40;;;14.00;99.90;;;;;;5031798;28;20226;-61
2021/08/26 07:24:23;;;;;;;8.83;3.90;;;14.10;99.90;;;;;;5031598;28;20241;-59
2021/08/26 07:26:51;;;;;;;12.67;4.23;;;14.20;3.20;;;;;;5031542;28;20213;-62
2021/08/26 07:29:18;;;;;;;9.53;3.87;;;14.20;1.00;;;;;;5031299;28;20270;-62
2021/08/26 07:31:46;;;;;;;10.03;3.77;;;14.30;1.00;;;;;;5031246;28;20729;-61
2021/08/26 07:34:13;;;;;;;11.83;3.40;;;14.30;1.00;;;;;;5031577;28;20213;-61
2021/08/26 07:36:40;;;;;;;11.50;3.40;;;14.30;1.00;;;;;;5031658;28;20263;-61
2021/08/26 07:39:07;;;;;;;7.70;3.13;;;14.20;99.90;;;;;;5031234;28;20208;-60
2021/08/26 07:41:33;;;;;;;10.27;4.00;;;14.20;1.00;;;;;;5031556;28;20739;-59
2021/08/26 07:44:01;;;;;;;11.60;4.10;;;14.20;99.90;;;;;;5033502;28;20608;-56
2021/08/26 07:46:28;;;;;;;13.00;3.70;;;14.40;1.00;;;;;;5038333;28;20229;-60
2021/08/26 07:48:55;;;;;;;7.60;3.23;;;14.40;99.90;;;;;;5037999;28;20631;-61
2021/08/26 07:51:21;;;;;;;9.67;3.50;;;14.50;1.00;;;;;;5037905;28;20206;-63
2021/08/26 07:53:48;;;;;;;9.90;3.20;;;14.60;99.90;;;;;;5037909;28;20272;-63
2021/08/26 07:56:15;;;;;;;11.17;3.40;;;14.60;99.90;;;;;;5037792;28;20210;-62
2021/08/26 07:58:41;;;;;;;11.17;3.63;;;14.60;99.90;;;;;;5037659;28;20620;-63
2021/08/26 08:01:09;;;;;;;7.60;3.70;;;14.70;52.50;;;;;;5038037;28;20206;-61
2021/08/26 08:03:36;;;;;;;9.83;3.13;;;14.80;99.90;;;;;;5037748;28;20238;-62
2021/08/26 08:06:05;;;;;;;13.30;3.40;;;14.80;99.90;;;;;;5037897;28;20666;-61
2021/08/26 08:08:32;;;;;;;12.50;3.70;;;14.60;99.90;;;;;;5037742;28;20210;-61
2021/08/26 08:10:59;;;;;;;9.33;3.60;;;14.50;1.00;;;;;;5037655;28;20263;-61
2021/08/26 08:13:25;;;;;;;11.03;3.63;;;14.50;99.90;;;;;;5037646;28;20733;-59
2021/08/26 08:15:52;;;;;;;8.47;3.10;;;14.50;99.90;;;;;;5037864;28;20210;-61
2021/08/26 08:18:20;;;;;;;7.10;2.80;;;14.50;1.00;;;;;;5037773;28;20209;-56
2021/08/26 08:20:47;;;;;;;6.70;3.47;;;14.60;1.00;;;;;;5037691;28;20202;-61
2021/08/26 08:23:14;;;;;;;9.07;4.17;;;14.60;1.00;;;;;;5037481;28;20319;-61
2021/08/26 08:25:41;;;;;;;7.60;3.97;;;14.60;99.90;;;;;;5037605;28;20214;-61
2021/08/26 08:28:14;;;;;;;10.80;4.60;;;14.80;99.90;;;;;;5037408;28;20212;-61
2021/08/26 08:30:41;;;;;;;11.27;5.13;;;15.00;38.50;;;;;;5037689;28;20586;-61
2021/08/26 08:33:08;;;;;;;10.27;4.40;;;15.10;99.90;;;;;;5037582;28;20283;-61
2021/08/26 08:35:36;;;;;;;12.50;4.83;;;15.20;99.90;;;;;;5037675;28;20268;-63
2021/08/26 08:38:03;;;;;;;12.57;5.73;;;15.20;99.90;;;;;;5037423;28;20910;-63
2021/08/26 08:40:30;;;;;;;9.07;5.27;;;15.20;1.00;;;;;;5037659;28;20264;-63
2021/08/26 08:42:57;;;;;;;15.27;5.53;;;15.20;1.00;;;;;;5035234;28;20230;-63
2021/08/26 08:45:24;;;;;;;11.30;6.07;;;15.10;99.90;;;;;;5033749;28;20206;-62
2021/08/26 08:47:51;;;;;;;15.17;7.87;;;15.00;1.00;;;;;;5037753;28;20210;-63
2021/08/26 08:50:22;;;;;;;16.27;7.30;;;15.00;1.00;;;;;;5037715;28;20240;-59
2021/08/26 08:52:50;;;;;;;12.27;6.57;;;15.00;99.90;;;;;;5037715;28;20269;-61
2021/08/26 08:55:19;;;;;;;11.07;6.00;;;15.00;99.90;;;;;;5036640;28;20210;-62
2021/08/26 08:57:45;;;;;;;13.27;6.27;;;15.00;1.00;;;;;;5034588;28;20233;-62
2021/08/26 09:00:14;;;;;;;13.30;6.47;;;15.10;99.90;;;;;;5034247;28;20210;-63
2021/08/26 09:02:41;;;;;;;11.47;5.70;;;15.20;99.90;;;;;;5034089;28;20230;-65
2021/08/26 09:05:08;;;;;;;10.73;6.07;;;15.20;98.40;;;;;;5033713;28;20206;-62
2021/08/26 09:07:37;;;;;;;11.83;5.90;;;15.30;99.90;;;;;;5034075;28;20717;-62
2021/08/26 09:10:07;;;;;;;10.73;5.70;;;15.40;99.90;;;;;;5033980;28;20210;-63
2021/08/26 09:12:52;;;;;;;14.23;5.77;;;15.40;99.90;;;;;;5034068;28;20226;-62
2021/08/26 09:15:23;;;;;;;12.63;5.20;;;15.50;1.00;;;;;;5034033;28;20213;-62
2021/08/26 09:17:51;;;;;;;13.23;5.63;;;15.70;99.90;;;;;;5034477;28;20853;-60
2021/08/26 09:20:20;;;;;;;12.57;4.93;;;15.70;1.00;;;;;;5034462;28;20206;-61
2021/08/26 09:22:48;;;;;;;7.63;4.60;;;15.80;99.90;;;;;;5034077;28;20277;-61
2021/08/26 09:25:25;;;;;;;12.37;5.17;;;15.70;1.00;;;;;;5034315;28;20206;-61
2021/08/26 09:27:52;;;;;;;14.13;4.70;;;15.80;99.90;;;;;;5033628;28;20210;-62
2021/08/26 09:30:20;;;;;;;11.80;4.10;;;15.80;99.90;;;;;;5033486;28;20256;-62
2021/08/26 09:32:49;;;;;;;8.50;4.40;;;15.90;1.00;;;;;;5033560;28;20230;-62
2021/08/26 09:35:18;;;;;;;10.13;4.63;;;16.00;99.90;;;;;;5033654;28;20206;-62
2021/08/26 09:37:48;;;;;;;11.90;4.70;;;16.10;1.00;;;;;;5033472;28;20210;-62
2021/08/26 09:40:18;;;;;;;10.43;4.20;;;16.20;1.00;;;;;;5033479;28;20675;-62
2021/08/26 09:42:45;;;;;;;10.93;4.40;;;16.20;1.00;;;;;;5033107;28;20234;-62
2021/08/26 09:45:17;;;;;;;16.67;4.63;;;16.20;1.00;;;;;;5033301;28;20272;-62
2021/08/26 09:48:03;;;;;;;15.37;4.87;;;16.30;99.90;;;;;;5033355;28;20206;-61
2021/08/26 09:50:41;;;;;;;10.23;4.43;;;16.40;1.00;;;;;;5033257;28;20271;-62
2021/08/26 09:53:10;;;;;;;13.33;4.80;;;16.50;99.90;;;;;;5033046;28;20303;-62
2021/08/26 09:56:11;;;;;;;8.37;4.77;;;16.50;99.90;;;;;;5032911;28;20248;-62
2021/08/26 09:58:38;;;;;;;13.60;5.73;;;16.60;52.50;;;;;;5033040;28;20713;-62
2021/08/26 10:01:16;;;;;;;9.33;4.87;;;16.60;99.90;;;;;;5032976;28;20210;-62
2021/08/26 10:03:43;;;;;;;11.40;5.00;;;16.60;99.90;;;;;;5032898;28;20629;-62
2021/08/26 10:06:11;;;;;;;12.43;5.67;;;16.70;90.40;;;;;;5032886;28;20206;-61
2021/08/26 10:08:40;;;;;;;11.90;5.83;;;16.70;99.90;;;;;;5032682;28;20217;-61
2021/08/26 10:11:09;;;;;;;13.17;5.83;;;16.80;1.00;;;;;;5032867;28;20272;-62
2021/08/26 10:13:38;;;;;;;12.33;5.33;;;16.90;99.90;;;;;;5032350;28;20741;-63
2021/08/26 10:16:05;;;;;;;10.43;5.20;;;17.00;99.90;;;;;;5032512;28;20210;-61
2021/08/26 10:18:33;;;;;;;11.97;5.30;;;16.90;99.90;;;;;;5032810;28;20210;-61
2021/08/26 10:20:59;;;;;;;14.00;5.80;;;16.80;99.90;;;;;;5032672;28;20260;-62
2021/08/26 10:23:27;;;;;;;15.00;6.10;;;16.80;99.90;;;;;;5032160;28;20230;-62
2021/08/26 10:25:56;;;;;;;13.97;5.40;;;16.70;1.00;;;;;;5032699;28;20209;-61
2021/08/26 10:28:23;;;;;;;13.33;5.57;;;16.70;99.90;;;;;;5032195;28;20206;-62
2021/08/26 10:30:51;;;;;;;9.93;4.70;;;16.80;99.90;;;;;;5032781;28;20268;-61
2021/08/26 10:33:23;;;;;;;10.83;4.90;;;16.70;1.00;;;;;;5032364;28;20222;-62
2021/08/26 10:36:03;;;;;;;14.53;5.37;;;16.70;1.00;;;;;;5032592;28;20214;-61
2021/08/26 10:38:31;;;;;;;9.70;4.20;;;16.60;99.90;;;;;;5032600;28;20256;-61
2021/08/26 10:41:00;;;;;;;13.83;4.50;;;16.50;32.70;;;;;;5032381;28;20646;-62
2021/08/26 10:43:35;;;;;;;12.30;5.07;;;16.40;33.30;;;;;;5031598;28;20730;-61
2021/08/26 10:46:04;;;;;;;16.27;5.27;;;16.30;99.90;;;;;;5032699;28;20213;-59
2021/08/26 10:48:31;;;;;;;16.10;4.80;;;16.30;99.90;;;;;;5032506;28;20233;-63
2021/08/26 10:51:15;;;;;;;16.90;4.33;;;16.30;99.90;;;;;;5032054;28;20206;-61
2021/08/26 10:53:44;;;;;;;14.13;4.27;;;16.50;1.00;;;;;;5031520;28;20217;-61
2021/08/26 10:56:25;;;;;;;10.80;4.20;;;16.50;1.00;;;;;;5032335;28;20233;-58
2021/08/26 10:58:53;;;;;;;11.33;3.93;;;16.60;1.00;;;;;;5031930;28;20628;-61
2021/08/26 11:01:39;;;;;;;13.70;4.47;;;16.70;1.00;;;;;;5030973;28;20679;-63
2021/08/26 11:04:08;;;;;;;11.13;3.73;;;16.80;1.00;;;;;;5028145;28;20233;-65
2021/08/26 11:06:39;;;;;;;18.80;4.07;;;17.00;99.90;;;;;;5032938;28;20210;-62
2021/08/26 11:09:32;;;;;;;12.43;3.77;;;17.10;99.90;;;;;;5032071;28;20229;-65
2021/08/26 11:12:18;;;;;;;12.20;4.43;;;17.20;98.50;;;;;;5031542;28;20600;-61
2021/08/26 11:14:46;;;;;;;11.30;4.17;;;17.20;99.90;;;;;;5030999;28;20618;-62
2021/08/26 11:17:34;;;;;;;15.97;5.20;;;17.40;99.90;;;;;;5031977;28;20578;-61
2021/08/26 11:20:31;;;;;;;12.67;4.73;;;17.60;99.90;;;;;;5029384;28;20758;-61
2021/08/26 11:23:13;;;;;;;8.27;4.27;;;17.70;68.20;;;;;;5030920;28;20226;-65
2021/08/26 11:25:40;;;;;;;12.97;4.63;;;17.90;91.60;;;;;;5031011;28;20317;-59
2021/08/26 11:28:32;;;;;;;10.97;4.43;;;18.20;9.60;;;;;;5030325;28;20202;-61
2021/08/26 11:31:19;;;;;;;10.33;4.20;;;18.30;1.00;;;;;;5031294;28;20301;-61
2021/08/26 11:33:48;;;;;;;12.27;4.43;;;18.40;1.00;;;;;;5031204;28;20217;-62
2021/08/26 11:36:16;;;;;;;10.43;3.93;;;18.40;1.00;;;;;;5030900;28;20268;-64
2021/08/26 11:38:50;;;;;;;8.47;3.73;;;18.50;1.00;;;;;;5030895;28;20206;-64
2021/08/26 11:41:17;;;;;;;9.13;3.70;;;18.30;1.00;;;;;;5031300;28;20235;-63
2021/08/26 11:43:44;;;;;;;10.90;3.63;;;18.30;1.00;;;;;;5030511;28;20268;-63
2021/08/26 11:46:13;;;;;;;12.13;4.03;;;18.20;1.00;;;;;;5030560;28;20263;-63
2021/08/26 11:48:49;;;;;;;10.50;3.80;;;18.30;1.00;;;;;;5031637;28;20206;-66
2021/08/26 11:51:31;;;;;;;13.23;3.90;;;18.30;1.00;;;;;;5031299;28;20740;-61
2021/08/26 11:54:11;;;;;;;9.13;3.70;;;18.20;1.00;;;;;;5030825;28;20950;-61
2021/08/26 11:56:46;;;;;;;15.73;3.50;;;17.90;1.00;;;;;;5031162;28;20206;-61
2021/08/26 11:59:28;;;;;;;8.53;3.30;;;17.80;1.00;;;;;;5031426;28;20619;-62
2021/08/26 12:02:17;;;;;;;9.13;3.57;;;17.50;1.00;;;;;;5030790;28;20229;-60
2021/08/26 12:04:47;;;;;;;9.93;4.50;;;17.30;1.00;;;;;;5030891;28;20230;-60
2021/08/26 12:07:22;;;;;;;10.17;3.50;;;17.20;99.90;;;;;;5030009;28;20697;-61
2021/08/26 12:09:49;;;;;;;10.87;3.53;;;17.20;47.20;;;;;;5031306;28;20210;-61
2021/08/26 12:12:15;;;;;;;10.53;3.80;;;17.40;47.20;;;;;;5030003;28;20230;-61
2021/08/26 12:14:42;;;;;;;15.00;4.27;;;17.50;32.60;;;;;;5029849;28;20206;-61
2021/08/26 12:17:14;;;;;;;11.57;3.87;;;17.80;1.00;;;;;;5031486;28;20272;-60
2021/08/26 12:19:41;;;;;;;9.23;3.67;;;18.00;46.70;;;;;;5031170;28;20202;-60
2021/08/26 12:22:10;;;;;;;11.70;3.70;;;18.00;9.50;;;;;;5031229;28;20226;-58
2021/08/26 12:24:48;;;;;;;12.60;3.90;;;18.20;1.00;;;;;;5030828;28;20222;-60
2021/08/26 12:27:15;;;;;;;9.83;3.30;;;18.30;1.00;;;;;;5031432;28;20554;-59
2021/08/26 12:29:42;;;;;;;13.43;5.93;;;18.40;1.00;;;;;;5031867;28;20279;-61
2021/08/26 12:32:28;;;;;;;9.97;3.57;;;18.60;1.00;;;;;;5035285;28;20234;-59
2021/08/26 12:35:13;;;;;;;9.43;3.40;;;18.80;1.00;;;;;;5034778;28;20261;-61
2021/08/26 12:37:52;;;;;;;14.77;4.17;;;19.00;1.00;;;;;;5035053;28;20256;-61
2021/08/26 12:40:19;;;;;;;12.80;3.73;;;19.10;1.00;;;;;;5035129;28;20210;-62
2021/08/26 12:43:03;;;;;;;10.23;3.27;;;18.80;1.00;;;;;;5035039;28;20230;-61
2021/08/26 12:45:32;;;;;;;9.57;3.23;;;18.80;1.00;;;;;;5034566;28;20325;-62
2021/08/26 12:47:59;;;;;;;12.60;3.30;;;18.70;1.00;;;;;;5034618;28;20206;-61
2021/08/26 12:50:28;;;;;;;8.17;3.80;;;18.70;1.00;;;;;;5034781;28;20210;-62
2021/08/26 12:52:56;;;;;;;10.70;3.20;;;18.50;1.00;;;;;;5034976;28;20284;-61
2021/08/26 12:55:23;;;;;;;11.23;3.83;;;18.50;1.00;;;;;;5034496;28;20206;-61
2021/08/26 12:57:50;;;;;;;14.07;3.40;;;18.70;1.00;;;;;;5034414;28;20675;-61